createdAt,value
2019-03-22T00:02:00.057Z,1.30
2019-03-22T00:04:29.960Z,1.40
2019-03-22T00:06:59.938Z,1.20
2019-03-22T00:09:29.832Z,0.83
2019-03-22T00:11:59.705Z,1.53
2019-03-22T00:14:29.684Z,1.53
2019-03-22T00:16:59.656Z,1.30
2019-03-22T00:19:29.515Z,1.00
2019-03-22T00:21:59.428Z,1.23
2019-03-22T00:24:29.351Z,0.83
2019-03-22T00:26:59.219Z,1.10
2019-03-22T00:29:29.170Z,0.93
2019-03-22T00:31:59.044Z,0.97
2019-03-22T00:34:29.085Z,1.33
2019-03-22T00:36:59.019Z,1.20
2019-03-22T00:39:28.976Z,1.00
2019-03-22T00:41:58.956Z,0.70
2019-03-22T00:44:28.808Z,1.27
2019-03-22T00:46:58.689Z,1.93
2019-03-22T00:49:28.639Z,1.57
2019-03-22T00:51:58.489Z,1.00
2019-03-22T00:54:28.406Z,1.00
2019-03-22T00:56:58.330Z,1.23
2019-03-22T00:59:28.416Z,1.10
2019-03-22T01:01:58.288Z,0.90
2019-03-22T01:04:28.208Z,1.30
2019-03-22T01:06:58.135Z,0.83
2019-03-22T01:09:28.123Z,0.80
2019-03-22T01:11:58.039Z,1.00
2019-03-22T01:14:27.930Z,1.30
2019-03-22T01:16:57.863Z,1.00
2019-03-22T01:19:27.742Z,1.00
2019-03-22T01:21:57.623Z,1.00
2019-03-22T01:24:27.499Z,0.90
2019-03-22T01:26:57.399Z,0.70
2019-03-22T01:29:27.310Z,0.83
2019-03-22T01:31:57.238Z,0.80
2019-03-22T01:34:27.107Z,1.00
2019-03-22T01:36:57.026Z,0.80
2019-03-22T01:39:27.269Z,1.30
2019-03-22T01:41:57.171Z,1.00
2019-03-22T01:44:27.065Z,1.27
2019-03-22T01:46:57.020Z,0.87
2019-03-22T01:49:26.865Z,0.90
2019-03-22T01:51:56.777Z,0.80
2019-03-22T01:54:26.713Z,0.93
2019-03-22T01:56:56.797Z,0.90
2019-03-22T01:59:26.653Z,1.00
2019-03-22T02:01:56.695Z,0.80
2019-03-22T02:04:26.652Z,0.60
2019-03-22T02:06:56.572Z,1.17
2019-03-22T02:09:26.557Z,1.27
2019-03-22T02:11:56.563Z,1.03
2019-03-22T02:14:26.565Z,1.00
2019-03-22T02:16:56.566Z,1.20
2019-03-22T02:19:26.477Z,1.10
2019-03-22T02:21:56.330Z,1.03
2019-03-22T02:24:26.326Z,0.90
2019-03-22T02:26:56.303Z,0.90
2019-03-22T02:29:26.213Z,1.13
2019-03-22T02:31:56.240Z,1.00
2019-03-22T02:34:26.198Z,0.83
2019-03-22T02:36:56.090Z,1.30
2019-03-22T02:39:26.101Z,0.83
2019-03-22T02:41:55.979Z,1.00
2019-03-22T02:44:25.965Z,1.10
2019-03-22T02:46:55.884Z,1.07
2019-03-22T02:49:25.806Z,1.07
2019-03-22T02:51:55.671Z,1.33
2019-03-22T02:54:25.578Z,1.00
2019-03-22T02:56:55.562Z,1.00
2019-03-22T02:59:25.475Z,1.03
2019-03-22T03:01:55.425Z,1.03
2019-03-22T03:04:25.297Z,1.23
2019-03-22T03:06:55.243Z,1.40
2019-03-22T03:09:25.224Z,0.83
2019-03-22T03:11:55.103Z,1.37
2019-03-22T03:14:25.037Z,0.90
2019-03-22T03:16:54.963Z,1.40
2019-03-22T03:19:24.899Z,1.30
2019-03-22T03:21:54.770Z,1.30
2019-03-22T03:24:24.705Z,1.40
2019-03-22T03:26:54.624Z,1.10
2019-03-22T03:29:24.506Z,0.97
2019-03-22T03:31:54.468Z,1.00
2019-03-22T03:34:24.415Z,1.60
2019-03-22T03:36:54.332Z,1.10
2019-03-22T03:39:24.220Z,1.33
2019-03-22T03:41:54.198Z,1.00
2019-03-22T03:44:24.035Z,1.50
2019-03-22T03:46:53.965Z,1.20
2019-03-22T03:49:23.960Z,1.23
2019-03-22T03:51:53.858Z,1.27
2019-03-22T03:54:23.744Z,1.60
2019-03-22T03:56:53.683Z,1.27
2019-03-22T03:59:23.571Z,1.43
2019-03-22T04:01:53.455Z,2.13
2019-03-22T04:04:23.354Z,1.40
2019-03-22T04:06:53.272Z,1.33
2019-03-22T04:09:23.194Z,1.70
2019-03-22T04:11:53.085Z,1.50
2019-03-22T04:14:23.035Z,1.40
2019-03-22T04:16:52.995Z,1.13
2019-03-22T04:19:22.893Z,1.47
2019-03-22T04:21:52.819Z,1.43
2019-03-22T04:24:22.694Z,1.20
2019-03-22T04:26:52.609Z,1.23
2019-03-22T04:29:22.846Z,1.30
2019-03-22T04:31:52.717Z,1.53
2019-03-22T04:34:22.597Z,1.20
2019-03-22T04:36:52.596Z,2.83
2019-03-22T04:39:22.568Z,1.37
2019-03-22T04:41:52.440Z,1.77
2019-03-22T04:44:22.400Z,1.77
2019-03-22T04:46:52.767Z,1.80
2019-03-22T04:49:23.892Z,1.37
2019-03-22T04:51:55.305Z,2.10
2019-03-22T04:54:27.315Z,1.27
2019-03-22T04:56:59.245Z,1.30
2019-03-22T04:59:29.832Z,1.47
2019-03-22T05:02:02.245Z,1.67
2019-03-22T05:04:32.522Z,1.50
2019-03-22T05:07:02.851Z,1.33
2019-03-22T05:09:35.514Z,2.60
2019-03-22T05:12:06.337Z,1.97
2019-03-22T05:14:39.267Z,1.80
2019-03-22T05:17:10.376Z,1.70
2019-03-22T05:19:43.899Z,3.07
2019-03-22T05:22:15.702Z,1.67
2019-03-22T05:24:48.081Z,1.60
2019-03-22T05:27:20.228Z,2.27
2019-03-22T05:29:51.661Z,2.70
2019-03-22T05:32:22.314Z,2.60
2019-03-22T05:34:52.210Z,2.87
2019-03-22T05:37:22.145Z,2.47
2019-03-22T05:39:52.017Z,2.20
2019-03-22T05:42:22.180Z,3.23
2019-03-22T05:44:52.020Z,2.23
2019-03-22T05:47:21.917Z,2.50
2019-03-22T05:49:52.158Z,1.97
2019-03-22T05:52:22.084Z,2.10
2019-03-22T05:54:51.979Z,1.80
2019-03-22T05:57:21.897Z,1.80
2019-03-22T05:59:51.839Z,2.27
2019-03-22T06:02:21.696Z,1.70
2019-03-22T06:04:51.745Z,1.87
2019-03-22T06:07:21.761Z,2.00
2019-03-22T06:09:51.683Z,1.97
2019-03-22T06:12:21.685Z,1.93
2019-03-22T06:14:51.557Z,1.97
2019-03-22T06:17:21.593Z,1.97
2019-03-22T06:19:51.476Z,2.40
2019-03-22T06:22:21.478Z,2.17
2019-03-22T06:24:51.446Z,2.00
2019-03-22T06:27:21.340Z,2.03
2019-03-22T06:29:54.561Z,1.90
2019-03-22T06:32:23.024Z,2.33
2019-03-22T06:34:52.923Z,1.70
2019-03-22T06:37:22.856Z,1.80
2019-03-22T06:39:52.798Z,1.80
2019-03-22T06:42:22.706Z,1.90
2019-03-22T06:44:52.705Z,1.77
2019-03-22T06:47:22.640Z,2.10
2019-03-22T06:49:52.488Z,1.50
2019-03-22T06:52:22.416Z,1.97
2019-03-22T06:54:52.353Z,1.80
2019-03-22T06:57:22.302Z,2.07
2019-03-22T06:59:52.202Z,2.20
2019-03-22T07:02:22.207Z,1.80
2019-03-22T07:04:52.102Z,1.97
2019-03-22T07:07:22.069Z,2.13
2019-03-22T07:09:52.056Z,2.00
2019-03-22T07:12:22.096Z,1.90
2019-03-22T07:14:52.132Z,2.53
2019-03-22T07:17:22.414Z,2.30
2019-03-22T07:19:52.463Z,1.67
2019-03-22T07:22:22.435Z,2.00
2019-03-22T07:24:52.495Z,2.07
2019-03-22T07:27:22.560Z,1.93
2019-03-22T07:29:52.427Z,2.03
2019-03-22T07:32:22.481Z,2.10
2019-03-22T07:34:52.396Z,2.57
2019-03-22T07:37:22.291Z,2.20
2019-03-22T07:39:52.196Z,1.93
2019-03-22T07:42:22.159Z,2.37
2019-03-22T07:44:52.057Z,2.20
2019-03-22T07:47:22.132Z,1.90
2019-03-22T07:49:52.052Z,2.20
2019-03-22T07:52:22.268Z,1.90
2019-03-22T07:54:52.204Z,1.80
2019-03-22T07:57:22.195Z,2.10
2019-03-22T07:59:52.072Z,2.30
2019-03-22T08:02:22.013Z,2.10
2019-03-22T08:04:51.903Z,1.97
2019-03-22T08:07:21.894Z,1.97
2019-03-22T08:09:51.853Z,1.67
2019-03-22T08:12:21.789Z,1.70
2019-03-22T08:14:51.701Z,2.37
2019-03-22T08:17:22.168Z,2.17
2019-03-22T08:19:52.070Z,2.33
2019-03-22T08:22:21.992Z,2.03
2019-03-22T08:24:51.964Z,2.27
2019-03-22T08:27:21.977Z,2.00
2019-03-22T08:29:51.960Z,2.40
2019-03-22T08:32:22.094Z,1.97
2019-03-22T08:34:51.986Z,1.90
2019-03-22T08:37:21.962Z,2.33
2019-03-22T08:39:51.878Z,2.30
2019-03-22T08:42:21.840Z,2.33
2019-03-22T08:44:51.699Z,2.60
2019-03-22T08:47:33.114Z,1.90
2019-03-22T08:49:53.274Z,2.20
2019-03-22T08:52:23.305Z,2.00
2019-03-22T08:54:53.240Z,1.60
2019-03-22T08:57:24.978Z,2.67
2019-03-22T08:59:55.191Z,1.77
2019-03-22T09:02:25.112Z,2.00
2019-03-22T09:04:55.007Z,2.10
2019-03-22T09:07:25.138Z,1.97
2019-03-22T09:09:55.062Z,2.20
2019-03-22T09:12:26.900Z,2.17
2019-03-22T09:14:56.575Z,2.07
2019-03-22T09:17:27.523Z,1.80
2019-03-22T09:19:57.396Z,1.90
2019-03-22T09:22:27.336Z,1.80
2019-03-22T09:24:57.320Z,2.00
2019-03-22T09:27:27.174Z,1.90
2019-03-22T09:29:57.082Z,2.03
2019-03-22T09:32:26.994Z,2.03
2019-03-22T09:34:59.649Z,2.00
2019-03-22T09:37:28.455Z,1.87
2019-03-22T09:39:58.490Z,1.90
2019-03-22T09:42:28.362Z,1.90
2019-03-22T09:44:58.227Z,1.90
2019-03-22T09:47:28.186Z,1.90
2019-03-22T09:49:58.100Z,2.10
2019-03-22T09:52:27.974Z,2.33
2019-03-22T09:54:58.085Z,2.03
2019-03-22T09:57:27.992Z,1.90
2019-03-22T09:59:57.873Z,2.03
2019-03-22T10:02:27.990Z,1.70
2019-03-22T10:04:57.874Z,2.10
2019-03-22T10:07:27.854Z,1.90
2019-03-22T10:09:58.007Z,2.20
2019-03-22T10:12:27.954Z,2.03
2019-03-22T10:14:58.059Z,2.13
2019-03-22T10:17:28.005Z,1.90
2019-03-22T10:19:57.966Z,1.50
2019-03-22T10:22:27.842Z,1.80
2019-03-22T10:24:57.963Z,1.90
2019-03-22T10:27:27.901Z,1.70
2019-03-22T10:29:57.914Z,1.77
2019-03-22T10:32:27.890Z,1.37
2019-03-22T10:34:57.829Z,1.63
2019-03-22T10:37:27.742Z,1.70
2019-03-22T10:39:57.756Z,1.70
2019-03-22T10:42:27.795Z,1.80
2019-03-22T10:44:57.800Z,1.60
2019-03-22T10:47:27.912Z,2.00
2019-03-22T10:49:57.825Z,1.57
2019-03-22T10:52:27.720Z,1.53
2019-03-22T10:54:57.697Z,1.50
2019-03-22T10:57:27.843Z,1.73
2019-03-22T10:59:57.833Z,1.90
2019-03-22T11:02:27.762Z,1.70
2019-03-22T11:04:57.733Z,1.80
2019-03-22T11:07:27.651Z,1.87
2019-03-22T11:09:57.679Z,1.70
2019-03-22T11:12:27.743Z,1.70
2019-03-22T11:14:57.589Z,1.60
2019-03-22T11:17:27.640Z,1.60
2019-03-22T11:19:57.685Z,1.80
2019-03-22T11:22:27.637Z,1.90
2019-03-22T11:24:57.690Z,1.87
2019-03-22T11:27:27.717Z,1.63
2019-03-22T11:29:57.566Z,1.50
2019-03-22T11:32:27.528Z,1.70
2019-03-22T11:34:57.451Z,1.70
2019-03-22T11:37:27.386Z,1.30
2019-03-22T11:39:57.369Z,1.50
2019-03-22T11:42:27.291Z,1.77
2019-03-22T11:44:57.311Z,1.33
2019-03-22T11:47:27.312Z,1.33
2019-03-22T11:49:57.284Z,1.60
2019-03-22T11:52:27.163Z,1.50
2019-03-22T11:54:57.026Z,1.60
2019-03-22T11:57:27.165Z,1.40
2019-03-22T11:59:57.073Z,1.40
2019-03-22T12:02:26.972Z,1.20
2019-03-22T12:04:56.963Z,1.30
2019-03-22T12:07:26.890Z,1.30
2019-03-22T12:09:56.749Z,1.20
2019-03-22T12:12:26.721Z,1.87
2019-03-22T12:14:56.665Z,1.00
2019-03-22T12:17:26.587Z,1.30
2019-03-22T12:19:56.458Z,1.10
2019-03-22T12:22:26.510Z,1.30
2019-03-22T12:24:56.382Z,1.13
2019-03-22T12:27:36.116Z,0.90
2019-03-22T12:29:58.136Z,1.00
2019-03-22T12:32:32.224Z,1.17
2019-03-22T12:34:59.589Z,1.00
2019-03-22T12:37:29.485Z,1.03
2019-03-22T12:39:59.460Z,1.07
2019-03-22T12:42:29.421Z,1.10
2019-03-22T12:44:59.536Z,1.10
2019-03-22T12:47:29.430Z,1.07
2019-03-22T12:49:59.330Z,0.97
2019-03-22T12:52:31.305Z,0.90
2019-03-22T12:55:00.871Z,0.70
2019-03-22T12:57:30.772Z,0.80
2019-03-22T13:00:00.653Z,1.30
2019-03-22T13:02:30.617Z,0.90
2019-03-22T13:05:00.533Z,0.70
2019-03-22T13:07:30.506Z,0.80
2019-03-22T13:10:00.498Z,0.90
2019-03-22T13:12:30.467Z,0.80
2019-03-22T13:15:00.360Z,0.83
2019-03-22T13:17:30.306Z,0.90
2019-03-22T13:20:00.355Z,0.63
2019-03-22T13:22:30.345Z,0.60
2019-03-22T13:25:00.337Z,0.77
2019-03-22T13:27:30.360Z,0.60
2019-03-22T13:30:00.427Z,0.73
2019-03-22T13:32:30.346Z,1.43
2019-03-22T13:35:00.424Z,1.10
2019-03-22T13:37:30.290Z,0.93
2019-03-22T13:40:00.334Z,1.10
2019-03-22T13:42:30.415Z,1.03
2019-03-22T13:45:00.365Z,0.90
2019-03-22T13:47:30.235Z,0.90
2019-03-22T13:50:00.346Z,0.80
2019-03-22T13:52:30.324Z,0.77
2019-03-22T13:55:00.323Z,0.70
2019-03-22T13:57:30.219Z,0.70
2019-03-22T14:00:00.272Z,0.80
2019-03-22T14:02:30.268Z,0.90
2019-03-22T14:05:00.316Z,0.50
2019-03-22T14:07:30.387Z,0.70
2019-03-22T14:10:00.509Z,0.53
2019-03-22T14:12:37.052Z,0.67
2019-03-22T14:15:02.010Z,0.80
2019-03-22T14:17:31.968Z,0.70
2019-03-22T14:20:10.800Z,0.97
2019-03-22T14:22:33.598Z,0.90
2019-03-22T14:25:03.547Z,0.63
2019-03-22T14:27:33.446Z,0.73
2019-03-22T14:30:03.343Z,0.70
2019-03-22T14:32:33.319Z,0.73
2019-03-22T14:35:03.307Z,0.70
2019-03-22T14:37:33.217Z,0.50
2019-03-22T14:40:03.154Z,0.67
2019-03-22T14:42:33.089Z,0.60
2019-03-22T14:45:02.969Z,0.47
2019-03-22T14:47:32.924Z,0.70
2019-03-22T14:50:02.893Z,0.43
2019-03-22T14:52:32.840Z,0.43
2019-03-22T14:55:03.077Z,0.57
2019-03-22T14:57:32.977Z,0.50
2019-03-22T15:00:02.959Z,0.50
2019-03-22T15:02:32.805Z,0.60
2019-03-22T15:05:02.756Z,0.50
2019-03-22T15:07:32.639Z,0.80
2019-03-22T15:10:02.689Z,0.90
2019-03-22T15:12:32.615Z,0.53
2019-03-22T15:15:10.468Z,0.87
2019-03-22T15:17:59.338Z,0.63
2019-03-22T15:21:06.169Z,0.70
2019-03-22T15:24:02.969Z,0.40
2019-03-22T15:26:49.863Z,0.93
2019-03-22T15:29:46.154Z,0.50
2019-03-22T15:32:32.495Z,0.40
2019-03-22T15:35:20.200Z,0.50
2019-03-22T15:38:15.378Z,0.67
2019-03-22T15:40:45.305Z,0.50
2019-03-22T15:43:15.233Z,0.50
2019-03-22T15:45:45.237Z,1.03
2019-03-22T15:48:15.153Z,1.00
2019-03-22T15:50:45.075Z,0.90
2019-03-22T15:53:14.939Z,0.53
2019-03-22T15:55:45.130Z,0.57
2019-03-22T15:58:15.120Z,0.70
2019-03-22T16:00:45.019Z,0.90
2019-03-22T16:03:15.017Z,0.70
2019-03-22T16:05:44.956Z,0.80
2019-03-22T16:08:14.858Z,1.27
2019-03-22T16:10:44.799Z,1.20
2019-03-22T16:13:14.796Z,1.00
2019-03-22T16:15:44.690Z,1.13
2019-03-22T16:18:14.640Z,0.97
2019-03-22T16:20:44.604Z,1.60
2019-03-22T16:23:14.636Z,1.10
2019-03-22T16:25:44.502Z,1.10
2019-03-22T16:28:14.443Z,1.43
2019-03-22T16:30:44.527Z,1.13
2019-03-22T16:33:14.398Z,1.33
2019-03-22T16:35:44.358Z,1.20
2019-03-22T16:38:14.340Z,1.20
2019-03-22T16:40:44.544Z,1.50
2019-03-22T16:43:14.411Z,1.17
2019-03-22T16:45:44.379Z,1.70
2019-03-22T16:48:14.247Z,1.47
2019-03-22T16:50:44.250Z,1.90
2019-03-22T16:53:14.315Z,1.50
2019-03-22T16:55:44.174Z,1.60
2019-03-22T16:58:14.103Z,1.70
2019-03-22T17:00:44.271Z,1.37
2019-03-22T17:03:14.415Z,1.50
2019-03-22T17:05:44.420Z,1.70
2019-03-22T17:08:14.562Z,1.73
2019-03-22T17:10:44.538Z,1.73
2019-03-22T17:13:14.399Z,1.50
2019-03-22T17:15:44.303Z,1.37
2019-03-22T17:18:14.453Z,1.20
2019-03-22T17:20:44.412Z,1.30
2019-03-22T17:23:14.309Z,1.60
2019-03-22T17:25:46.465Z,1.50
2019-03-22T17:28:16.462Z,1.37
2019-03-22T17:30:46.380Z,1.37
2019-03-22T17:33:16.321Z,1.53
2019-03-22T17:35:46.323Z,1.40
2019-03-22T17:38:16.268Z,1.23
2019-03-22T17:40:46.198Z,1.40
2019-03-22T17:43:16.109Z,1.17
2019-03-22T17:45:45.993Z,1.57
2019-03-22T17:48:16.069Z,1.20
2019-03-22T17:50:45.959Z,1.17
2019-03-22T17:53:15.835Z,1.43
2019-03-22T17:55:45.751Z,1.23
2019-03-22T17:58:15.717Z,0.93
2019-03-22T18:00:46.435Z,1.30
2019-03-22T18:03:16.309Z,1.10
2019-03-22T18:05:46.241Z,1.63
2019-03-22T18:08:16.203Z,1.00
2019-03-22T18:10:46.093Z,0.93
2019-03-22T18:13:16.048Z,0.97
2019-03-22T18:15:45.990Z,1.10
2019-03-22T18:18:15.851Z,1.13
2019-03-22T18:20:45.846Z,1.00
2019-03-22T18:23:15.755Z,1.10
2019-03-22T18:25:45.670Z,0.80
2019-03-22T18:28:15.632Z,1.20
2019-03-22T18:30:45.500Z,1.10
2019-03-22T18:33:15.383Z,1.20
2019-03-22T18:35:45.321Z,1.40
2019-03-22T18:38:15.348Z,1.30
2019-03-22T18:40:45.226Z,1.50
2019-03-22T18:43:15.170Z,1.13
2019-03-22T18:45:45.113Z,1.27
2019-03-22T18:48:14.979Z,1.67
2019-03-22T18:50:44.900Z,1.60
2019-03-22T18:53:14.827Z,1.77
2019-03-22T18:55:44.771Z,1.73
2019-03-22T18:58:14.714Z,1.67
2019-03-22T19:00:44.596Z,1.43
2019-03-22T19:03:14.634Z,1.50
2019-03-22T19:05:44.561Z,1.17
2019-03-22T19:08:14.441Z,1.33
2019-03-22T19:10:44.327Z,1.40
2019-03-22T19:13:14.417Z,0.80
2019-03-22T19:15:44.317Z,1.00
2019-03-22T19:18:14.199Z,1.67
2019-03-22T19:20:44.140Z,1.27
2019-03-22T19:23:14.291Z,1.30
2019-03-22T19:25:44.218Z,1.90
2019-03-22T19:28:14.190Z,1.17
2019-03-22T19:30:44.088Z,1.07
2019-03-22T19:33:14.050Z,1.17
2019-03-22T19:35:43.981Z,1.10
2019-03-22T19:38:13.985Z,1.50
2019-03-22T19:40:43.967Z,1.73
2019-03-22T19:43:13.923Z,1.40
2019-03-22T19:45:43.906Z,1.37
2019-03-22T19:48:13.813Z,1.47
2019-03-22T19:50:43.803Z,1.07
2019-03-22T19:53:13.750Z,1.80
2019-03-22T19:55:43.873Z,1.67
2019-03-22T19:58:13.909Z,1.80
2019-03-22T20:00:43.962Z,1.50
2019-03-22T20:03:13.989Z,1.60
2019-03-22T20:05:43.902Z,1.60
2019-03-22T20:08:14.019Z,1.60
2019-03-22T20:10:43.970Z,1.40
2019-03-22T20:13:13.846Z,1.50
2019-03-22T20:15:43.832Z,1.57
2019-03-22T20:18:13.930Z,1.80
2019-03-22T20:20:43.863Z,1.73
2019-03-22T20:23:13.723Z,1.37
2019-03-22T20:25:43.697Z,1.47
2019-03-22T20:28:13.636Z,1.60
2019-03-22T20:30:43.959Z,1.37
2019-03-22T20:33:13.884Z,1.23
2019-03-22T20:35:43.870Z,1.20
2019-03-22T20:38:13.801Z,1.60
2019-03-22T20:40:43.742Z,1.53
2019-03-22T20:43:13.715Z,1.37
2019-03-22T20:45:43.598Z,1.10
2019-03-22T20:48:13.637Z,1.40
2019-03-22T20:50:43.620Z,1.20
2019-03-22T20:53:13.540Z,1.60
2019-03-22T20:55:43.449Z,1.50
2019-03-22T20:58:13.412Z,1.67
2019-03-22T21:00:43.325Z,2.00
2019-03-22T21:03:13.179Z,1.80
2019-03-22T21:05:43.097Z,1.50
2019-03-22T21:08:12.945Z,1.23
2019-03-22T21:10:42.895Z,1.10
2019-03-22T21:13:12.820Z,1.90
2019-03-22T21:15:42.798Z,1.40
2019-03-22T21:18:12.659Z,1.63
2019-03-22T21:20:42.571Z,1.60
2019-03-22T21:23:12.516Z,1.17
2019-03-22T21:25:42.451Z,1.03
2019-03-22T21:28:12.598Z,1.47
2019-03-22T21:30:42.474Z,1.40
2019-03-22T21:33:12.508Z,1.07
2019-03-22T21:35:42.453Z,1.50
2019-03-22T21:38:15.754Z,1.73
2019-03-22T21:40:45.758Z,1.60
2019-03-22T21:43:15.746Z,1.20
2019-03-22T21:45:45.718Z,1.67
2019-03-22T21:48:17.786Z,1.50
2019-03-22T21:50:47.725Z,1.27
2019-03-22T21:53:17.680Z,1.13
2019-03-22T21:55:47.604Z,1.67
2019-03-22T21:58:17.533Z,1.50
2019-03-22T22:00:47.609Z,1.50
2019-03-22T22:03:17.480Z,0.90
2019-03-22T22:05:48.268Z,0.90
2019-03-22T22:08:18.196Z,0.80
2019-03-22T22:10:48.113Z,0.90
2019-03-22T22:13:19.291Z,0.90
2019-03-22T22:15:49.177Z,0.90
2019-03-22T22:18:19.027Z,0.97
2019-03-22T22:20:49.013Z,0.90
2019-03-22T22:23:19.046Z,1.60
2019-03-22T22:25:48.955Z,1.00
2019-03-22T22:28:18.904Z,1.13
2019-03-22T22:30:48.847Z,0.93
2019-03-22T22:33:18.715Z,1.33
2019-03-22T22:35:58.270Z,0.90
2019-03-22T22:38:20.274Z,1.30
2019-03-22T22:40:50.181Z,1.13
2019-03-22T22:43:20.115Z,0.97
2019-03-22T22:45:50.099Z,0.87
2019-03-22T22:48:19.965Z,1.03
2019-03-22T22:50:49.927Z,0.83
2019-03-22T22:53:19.878Z,1.20
2019-03-22T22:55:49.927Z,0.80
2019-03-22T22:58:19.818Z,0.87
2019-03-22T23:00:50.032Z,1.00
2019-03-22T23:03:20.102Z,0.77
2019-03-22T23:05:49.968Z,1.03
2019-03-22T23:08:19.917Z,1.10
2019-03-22T23:10:49.869Z,0.90
2019-03-22T23:13:19.795Z,0.80
2019-03-22T23:15:49.803Z,1.27
2019-03-22T23:18:19.733Z,1.00
2019-03-22T23:20:49.662Z,1.53
2019-03-22T23:23:19.535Z,1.27
2019-03-22T23:25:49.483Z,1.37
2019-03-22T23:28:19.398Z,0.83
2019-03-22T23:30:49.260Z,0.70
2019-03-22T23:33:19.193Z,1.20
2019-03-22T23:35:49.217Z,1.10
2019-03-22T23:38:19.094Z,1.20
2019-03-22T23:40:49.023Z,1.40
2019-03-22T23:43:19.134Z,1.20
2019-03-22T23:45:49.025Z,1.33
2019-03-22T23:48:19.032Z,1.00
2019-03-22T23:50:48.970Z,1.20
2019-03-22T23:53:18.820Z,1.23
2019-03-22T23:55:48.833Z,1.13
2019-03-22T23:58:18.818Z,1.50
